createdAt,value
2023-02-20T00:02:58.491Z,4.82
2023-02-20T00:06:03.299Z,4.77
2023-02-20T00:09:07.871Z,5.08
2023-02-20T00:12:12.381Z,5.09
2023-02-20T00:15:19.521Z,4.99
2023-02-20T00:18:24.296Z,5.31
2023-02-20T00:21:28.855Z,5.35
2023-02-20T00:24:33.574Z,5.46
2023-02-20T00:27:38.138Z,5.39
2023-02-20T00:30:42.830Z,5.34
2023-02-20T00:33:47.602Z,5.35
2023-02-20T00:36:54.051Z,5.42
2023-02-20T00:39:58.695Z,5.20
2023-02-20T00:43:03.273Z,5.09
2023-02-20T00:46:12.789Z,5.40
2023-02-20T00:49:17.616Z,4.95
2023-02-20T00:52:25.531Z,5.22
2023-02-20T00:55:30.302Z,5.18
2023-02-20T00:58:35.047Z,5.15
2023-02-20T01:01:39.909Z,5.28
2023-02-20T01:04:44.597Z,4.96
2023-02-20T01:07:49.106Z,5.37
2023-02-20T01:10:53.722Z,5.43
2023-02-20T01:13:58.274Z,5.22
2023-02-20T01:17:03.232Z,5.51
2023-02-20T01:20:08.983Z,5.36
2023-02-20T01:23:13.580Z,5.46
2023-02-20T01:26:18.363Z,5.31
2023-02-20T01:29:22.882Z,5.16
2023-02-20T01:32:27.699Z,5.14
2023-02-20T01:35:33.226Z,5.09
2023-02-20T01:38:40.401Z,4.99
2023-02-20T01:41:47.833Z,4.79
2023-02-20T01:44:52.388Z,4.78
2023-02-20T01:47:58.140Z,4.66
2023-02-20T01:51:02.996Z,4.57
2023-02-20T01:54:11.399Z,4.41
2023-02-20T01:57:21.876Z,4.74
2023-02-20T02:00:27.416Z,4.86
2023-02-20T02:03:39.450Z,4.51
2023-02-20T02:06:49.330Z,4.74
2023-02-20T02:09:58.907Z,4.49
2023-02-20T02:13:07.009Z,4.88
2023-02-20T02:16:45.471Z,4.81
2023-02-20T02:20:08.726Z,4.77
2023-02-20T02:23:30.133Z,4.93
2023-02-20T02:27:04.362Z,4.89
2023-02-20T02:30:29.032Z,4.88
2023-02-20T02:33:55.472Z,4.81
2023-02-20T02:37:24.961Z,4.66
2023-02-20T02:40:38.221Z,4.92
2023-02-20T02:43:54.042Z,4.72
2023-02-20T02:47:13.370Z,4.65
2023-02-20T02:50:23.740Z,4.95
2023-02-20T02:53:28.400Z,4.55
2023-02-20T02:56:38.739Z,4.95
2023-02-20T02:59:44.982Z,4.74
2023-02-20T03:03:07.008Z,4.67
2023-02-20T03:06:23.178Z,4.87
2023-02-20T03:09:32.800Z,4.82
2023-02-20T03:12:42.142Z,4.65
2023-02-20T03:15:52.153Z,4.71
2023-02-20T03:19:01.785Z,4.55
2023-02-20T03:22:17.922Z,4.24
2023-02-20T03:25:27.853Z,4.30
2023-02-20T03:28:50.934Z,4.49
2023-02-20T03:32:19.799Z,4.52
2023-02-20T03:35:45.081Z,4.37
2023-02-20T03:39:18.116Z,4.28
2023-02-20T03:42:43.572Z,4.63
2023-02-20T03:46:03.363Z,4.39
2023-02-20T03:49:17.598Z,4.46
2023-02-20T03:52:24.412Z,4.57
2023-02-20T03:55:29.209Z,4.45
2023-02-20T03:58:40.882Z,4.08
2023-02-20T04:01:52.539Z,4.21
2023-02-20T04:05:00.886Z,4.67
2023-02-20T04:08:27.746Z,4.57
2023-02-20T04:11:39.241Z,4.56
2023-02-20T04:14:46.242Z,4.52
2023-02-20T04:17:58.286Z,4.48
2023-02-20T04:21:07.959Z,4.53
2023-02-20T04:24:21.231Z,4.75
2023-02-20T04:27:26.073Z,4.31
2023-02-20T04:30:34.444Z,4.61
2023-02-20T04:33:39.131Z,4.40
2023-02-20T04:36:53.745Z,4.21
2023-02-20T04:39:58.598Z,4.63
2023-02-20T04:43:03.968Z,4.69
2023-02-20T04:46:08.832Z,4.70
2023-02-20T04:49:14.035Z,4.53
2023-02-20T04:52:19.458Z,4.54
2023-02-20T04:55:24.421Z,4.70
2023-02-20T04:58:34.077Z,4.63
2023-02-20T05:01:48.025Z,4.64
2023-02-20T05:04:52.828Z,4.59
2023-02-20T05:08:03.095Z,4.55
2023-02-20T05:11:07.716Z,4.72
2023-02-20T05:14:12.799Z,4.78
2023-02-20T05:17:17.591Z,4.39
2023-02-20T05:20:42.213Z,4.59
2023-02-20T05:23:47.221Z,4.96
2023-02-20T05:26:53.171Z,4.78
2023-02-20T05:29:59.561Z,4.86
2023-02-20T05:33:04.125Z,4.61
2023-02-20T05:36:08.717Z,4.86
2023-02-20T05:39:13.224Z,4.83
2023-02-20T05:42:18.578Z,4.43
2023-02-20T05:45:23.135Z,4.71
2023-02-20T05:48:27.763Z,4.59
2023-02-20T05:51:34.161Z,4.69
2023-02-20T05:54:40.336Z,4.75
2023-02-20T05:57:45.072Z,4.58
2023-02-20T06:00:49.965Z,4.60
2023-02-20T06:03:54.789Z,4.58
2023-02-20T06:06:59.397Z,4.50
2023-02-20T06:10:05.167Z,4.68
2023-02-20T06:13:09.747Z,4.66
2023-02-20T06:16:22.665Z,4.47
2023-02-20T06:19:27.255Z,4.42
2023-02-20T06:22:31.810Z,4.45
2023-02-20T06:25:36.388Z,4.36
2023-02-20T06:28:41.247Z,4.68
2023-02-20T06:31:46.262Z,4.33
2023-02-20T06:34:50.882Z,4.56
2023-02-20T06:37:55.464Z,4.59
2023-02-20T06:41:00.237Z,4.36
2023-02-20T06:44:05.609Z,4.63
2023-02-20T06:47:10.315Z,4.48
2023-02-20T06:50:14.895Z,4.66
2023-02-20T06:53:19.418Z,4.74
2023-02-20T06:56:27.081Z,4.37
2023-02-20T06:59:31.737Z,4.69
2023-02-20T07:02:37.344Z,4.84
2023-02-20T07:05:42.101Z,4.79
2023-02-20T07:08:46.626Z,4.90
2023-02-20T07:11:53.026Z,4.69
2023-02-20T07:14:57.936Z,4.37
2023-02-20T07:18:02.487Z,4.83
2023-02-20T07:21:07.132Z,4.66
2023-02-20T07:24:11.630Z,4.60
2023-02-20T07:27:16.266Z,4.79
2023-02-20T07:30:20.970Z,4.93
2023-02-20T07:33:25.599Z,5.10
2023-02-20T07:36:30.426Z,5.17
2023-02-20T07:39:34.947Z,5.12
2023-02-20T07:42:39.787Z,5.05
2023-02-20T07:45:51.586Z,5.24
2023-02-20T07:48:56.098Z,5.13
2023-02-20T07:52:00.825Z,5.20
2023-02-20T07:55:05.569Z,4.85
2023-02-20T07:58:10.726Z,5.18
2023-02-20T08:01:15.337Z,5.44
2023-02-20T08:04:19.954Z,5.41
2023-02-20T08:07:24.733Z,5.72
2023-02-20T08:10:29.882Z,5.83
2023-02-20T08:13:34.674Z,5.32
2023-02-20T08:16:39.277Z,5.44
2023-02-20T08:19:43.870Z,5.46
2023-02-20T08:22:49.865Z,5.89
2023-02-20T08:25:54.718Z,5.49
2023-02-20T08:28:59.529Z,5.46
2023-02-20T08:32:04.483Z,5.41
2023-02-20T08:35:09.308Z,5.46
2023-02-20T08:38:24.716Z,5.80
2023-02-20T08:41:29.347Z,5.52
2023-02-20T08:44:33.855Z,5.37
2023-02-20T08:47:38.411Z,5.78
2023-02-20T08:50:42.944Z,5.90
2023-02-20T08:53:47.704Z,5.79
2023-02-20T08:56:52.238Z,5.95
2023-02-20T08:59:56.873Z,5.94
2023-02-20T09:03:01.551Z,5.52
2023-02-20T09:06:06.184Z,5.81
2023-02-20T09:09:10.749Z,6.16
2023-02-20T09:12:15.578Z,5.62
2023-02-20T09:15:20.134Z,6.30
2023-02-20T09:18:24.692Z,5.82
2023-02-20T09:21:29.354Z,6.14
2023-02-20T09:24:37.326Z,6.02
2023-02-20T09:27:41.851Z,6.01
2023-02-20T09:30:46.428Z,6.19
2023-02-20T09:33:51.727Z,6.21
2023-02-20T09:36:56.377Z,6.44
2023-02-20T09:40:00.934Z,6.56
2023-02-20T09:43:26.929Z,6.55
2023-02-20T09:46:31.614Z,6.74
2023-02-20T09:49:38.266Z,6.63
2023-02-20T09:52:49.698Z,6.80
2023-02-20T09:55:55.965Z,6.37
2023-02-20T09:59:15.542Z,6.63
2023-02-20T10:02:28.298Z,7.07
2023-02-20T10:05:34.552Z,6.85
2023-02-20T10:08:39.046Z,6.95
2023-02-20T10:12:05.663Z,7.47
2023-02-20T10:15:23.901Z,7.83
2023-02-20T10:18:50.992Z,7.40
2023-02-20T10:22:01.278Z,7.70
2023-02-20T10:25:17.136Z,7.74
2023-02-20T10:28:23.476Z,8.00
2023-02-20T10:31:37.536Z,7.87
2023-02-20T10:34:51.782Z,8.13
2023-02-20T10:37:59.337Z,8.68
2023-02-20T10:41:12.214Z,8.95
2023-02-20T10:44:46.379Z,8.74
2023-02-20T10:48:04.544Z,9.76
2023-02-20T10:51:12.161Z,9.14
2023-02-20T10:54:24.442Z,8.83
2023-02-20T10:57:41.652Z,9.26
2023-02-20T11:00:51.409Z,9.37
2023-02-20T11:04:02.627Z,9.30
2023-02-20T11:07:19.065Z,8.15
2023-02-20T11:10:23.642Z,10.31
2023-02-20T11:13:28.266Z,9.46
2023-02-20T11:16:38.650Z,10.85
2023-02-20T11:19:53.391Z,10.48
2023-02-20T11:22:59.239Z,10.42
2023-02-20T11:26:24.239Z,10.79
2023-02-20T11:29:35.518Z,10.38
2023-02-20T11:32:41.445Z,11.44
2023-02-20T11:35:49.590Z,11.69
2023-02-20T11:39:03.246Z,11.06
2023-02-20T11:42:20.183Z,10.49
2023-02-20T11:45:29.583Z,9.95
2023-02-20T11:48:34.206Z,10.06
2023-02-20T11:51:46.466Z,10.49
2023-02-20T11:55:26.664Z,9.75
2023-02-20T11:58:32.769Z,10.56
2023-02-20T12:01:38.151Z,10.93
2023-02-20T12:04:43.863Z,10.37
2023-02-20T12:07:51.478Z,10.95
2023-02-20T12:11:08.385Z,11.42
2023-02-20T12:14:15.305Z,13.42
2023-02-20T12:17:33.959Z,12.34
2023-02-20T12:20:44.941Z,13.24
2023-02-20T12:24:21.898Z,13.69
2023-02-20T12:27:57.502Z,10.90
2023-02-20T12:31:17.549Z,11.06
2023-02-20T12:34:46.147Z,10.17
2023-02-20T12:38:18.322Z,10.69
2023-02-20T12:41:47.213Z,9.98
2023-02-20T12:45:09.927Z,10.29
2023-02-20T12:48:45.376Z,10.82
2023-02-20T12:51:56.832Z,11.74
2023-02-20T12:55:27.838Z,12.82
2023-02-20T12:59:07.465Z,12.31
2023-02-20T13:02:42.696Z,12.21
2023-02-20T13:05:50.051Z,12.07
2023-02-20T13:09:09.524Z,11.78
2023-02-20T13:12:16.365Z,12.93
2023-02-20T13:15:42.277Z,12.78
2023-02-20T13:18:51.765Z,13.73
2023-02-20T13:21:58.492Z,12.79
2023-02-20T13:25:30.739Z,13.64
2023-02-20T13:28:42.709Z,12.92
2023-02-20T13:31:53.129Z,12.77
2023-02-20T13:35:42.158Z,12.88
2023-02-20T13:39:21.477Z,14.41
2023-02-20T13:42:29.652Z,13.67
2023-02-20T13:45:41.524Z,14.33
2023-02-20T13:48:49.990Z,14.78
2023-02-20T13:51:54.554Z,13.59
2023-02-20T13:55:03.822Z,13.47
2023-02-20T13:58:12.659Z,13.98
2023-02-20T14:01:17.423Z,12.92
2023-02-20T14:04:23.609Z,12.90
2023-02-20T14:07:40.748Z,12.54
2023-02-20T14:10:47.719Z,12.93
2023-02-20T14:13:57.980Z,12.96
2023-02-20T14:17:27.119Z,11.86
2023-02-20T14:20:38.179Z,11.20
2023-02-20T14:23:42.848Z,11.50
2023-02-20T14:26:48.282Z,11.24
2023-02-20T14:30:12.137Z,11.08
2023-02-20T14:33:26.040Z,11.09
2023-02-20T14:36:52.259Z,11.68
2023-02-20T14:40:17.885Z,11.87
2023-02-20T14:43:25.153Z,11.26
2023-02-20T14:46:32.739Z,11.07
2023-02-20T14:49:37.430Z,11.37
2023-02-20T14:52:42.095Z,11.29
2023-02-20T14:55:49.910Z,11.55
2023-02-20T14:58:54.676Z,10.98
2023-02-20T15:02:03.924Z,12.02
2023-02-20T15:05:12.599Z,12.57
2023-02-20T15:08:23.150Z,13.28
2023-02-20T15:11:28.799Z,13.39
2023-02-20T15:14:33.892Z,13.29
2023-02-20T15:17:41.046Z,12.78
2023-02-20T15:20:49.249Z,13.36
2023-02-20T15:23:53.843Z,13.20
2023-02-20T15:27:14.159Z,12.63
2023-02-20T15:30:19.651Z,12.52
2023-02-20T15:33:24.583Z,12.44
2023-02-20T15:36:29.199Z,11.97
2023-02-20T15:39:40.024Z,11.26
2023-02-20T15:42:44.568Z,11.31
2023-02-20T15:45:49.122Z,11.15
2023-02-20T15:48:55.588Z,10.60
2023-02-20T15:52:09.514Z,10.76
2023-02-20T15:55:20.727Z,10.74
2023-02-20T15:58:35.188Z,10.77
2023-02-20T16:01:41.084Z,10.68
2023-02-20T16:04:47.291Z,11.01
2023-02-20T16:07:52.127Z,10.71
2023-02-20T16:10:56.962Z,10.52
2023-02-20T16:14:02.010Z,10.56
2023-02-20T16:17:06.623Z,10.59
2023-02-20T16:20:19.688Z,10.52
2023-02-20T16:23:24.274Z,10.63
2023-02-20T16:26:32.949Z,10.11
2023-02-20T16:29:39.045Z,10.53
2023-02-20T16:32:44.976Z,9.99
2023-02-20T16:35:50.844Z,9.83
2023-02-20T16:38:55.389Z,9.63
2023-02-20T16:42:00.162Z,9.88
2023-02-20T16:45:11.365Z,9.52
2023-02-20T16:48:18.767Z,9.69
2023-02-20T16:51:24.373Z,9.77
2023-02-20T16:54:29.050Z,9.48
2023-02-20T16:57:33.854Z,9.32
2023-02-20T17:00:51.051Z,9.46
2023-02-20T17:04:01.157Z,9.11
2023-02-20T17:07:08.867Z,9.27
2023-02-20T17:10:13.948Z,9.21
2023-02-20T17:13:18.768Z,8.88
2023-02-20T17:16:31.488Z,9.01
2023-02-20T17:19:37.895Z,8.78
2023-02-20T17:22:44.266Z,8.77
2023-02-20T17:25:49.188Z,8.78
2023-02-20T17:28:53.672Z,8.68
2023-02-20T17:31:58.300Z,8.89
2023-02-20T17:35:03.437Z,8.64
2023-02-20T17:38:07.940Z,8.60
2023-02-20T17:41:12.884Z,8.78
2023-02-20T17:44:24.306Z,8.40
2023-02-20T17:47:29.141Z,8.44
2023-02-20T17:50:33.821Z,8.43
2023-02-20T17:53:38.341Z,8.50
2023-02-20T17:56:44.364Z,8.24
2023-02-20T17:59:51.748Z,8.46
2023-02-20T18:02:56.270Z,8.32
2023-02-20T18:06:00.781Z,8.02
2023-02-20T18:09:09.173Z,8.09
2023-02-20T18:12:13.773Z,7.83
2023-02-20T18:15:20.362Z,8.04
2023-02-20T18:18:25.130Z,8.09
2023-02-20T18:21:31.125Z,8.03
2023-02-20T18:24:36.205Z,7.77
2023-02-20T18:27:40.755Z,7.65
2023-02-20T18:30:45.421Z,7.60
2023-02-20T18:33:50.210Z,7.31
2023-02-20T18:36:55.664Z,7.09
2023-02-20T18:40:00.206Z,7.60
2023-02-20T18:43:04.871Z,8.29
2023-02-20T18:46:09.550Z,7.94
2023-02-20T18:49:14.448Z,7.55
2023-02-20T18:52:23.322Z,7.48
2023-02-20T18:55:28.019Z,7.24
2023-02-20T18:58:32.597Z,7.02
2023-02-20T19:01:41.478Z,7.26
2023-02-20T19:04:49.781Z,7.44
2023-02-20T19:07:54.550Z,7.51
2023-02-20T19:10:59.114Z,7.34
2023-02-20T19:14:03.777Z,7.45
2023-02-20T19:17:10.467Z,7.25
2023-02-20T19:20:29.056Z,7.44
2023-02-20T19:23:33.939Z,7.21
2023-02-20T19:26:38.723Z,6.80
2023-02-20T19:29:45.541Z,6.74
2023-02-20T19:32:50.138Z,6.62
2023-02-20T19:35:55.309Z,6.66
2023-02-20T19:38:59.826Z,6.74
2023-02-20T19:42:05.044Z,6.60
2023-02-20T19:45:10.181Z,6.58
2023-02-20T19:48:15.634Z,6.68
2023-02-20T19:51:21.184Z,6.57
2023-02-20T19:54:28.021Z,6.39
2023-02-20T19:57:32.647Z,6.40
2023-02-20T20:00:37.286Z,6.60
2023-02-20T20:03:48.380Z,6.41
2023-02-20T20:06:53.677Z,6.68
2023-02-20T20:09:58.782Z,6.50
2023-02-20T20:13:04.673Z,6.54
2023-02-20T20:16:09.978Z,6.56
2023-02-20T20:19:16.211Z,6.36
2023-02-20T20:22:20.848Z,6.37
2023-02-20T20:25:25.465Z,6.36
2023-02-20T20:28:30.186Z,6.24
2023-02-20T20:31:40.731Z,6.31
2023-02-20T20:34:53.312Z,6.07
2023-02-20T20:37:58.839Z,5.86
2023-02-20T20:41:03.534Z,6.39
2023-02-20T20:44:08.801Z,6.39
2023-02-20T20:47:13.334Z,6.30
2023-02-20T20:50:24.035Z,5.65
2023-02-20T20:53:28.595Z,5.93
2023-02-20T20:56:33.167Z,5.35
2023-02-20T20:59:41.155Z,5.70
2023-02-20T21:02:46.000Z,5.13
2023-02-20T21:05:50.523Z,4.78
2023-02-20T21:08:55.132Z,4.15
2023-02-20T21:11:59.608Z,4.24
2023-02-20T21:15:05.552Z,4.11
2023-02-20T21:18:10.182Z,4.22
2023-02-20T21:21:16.214Z,4.29
2023-02-20T21:24:21.098Z,4.21
2023-02-20T21:27:25.686Z,4.14
2023-02-20T21:30:30.248Z,4.05
2023-02-20T21:33:34.786Z,3.90
2023-02-20T21:36:39.565Z,4.09
2023-02-20T21:39:44.101Z,4.08
2023-02-20T21:43:07.121Z,3.71
2023-02-20T21:46:11.900Z,3.84
2023-02-20T21:49:16.734Z,3.54
2023-02-20T21:52:21.565Z,4.23
2023-02-20T21:55:26.283Z,4.15
2023-02-20T21:58:49.426Z,3.91
2023-02-20T22:01:54.068Z,3.92
2023-02-20T22:04:58.535Z,3.38
2023-02-20T22:08:21.680Z,3.37
2023-02-20T22:11:44.605Z,3.40
2023-02-20T22:15:07.865Z,3.42
2023-02-20T22:18:30.820Z,3.41
2023-02-20T22:21:53.873Z,3.52
2023-02-20T22:25:16.725Z,3.55
2023-02-20T22:28:39.911Z,3.35
2023-02-20T22:32:02.759Z,3.00
2023-02-20T22:35:26.247Z,3.05
2023-02-20T22:38:49.241Z,3.21
2023-02-20T22:42:15.383Z,3.48
2023-02-20T22:45:39.840Z,3.19
2023-02-20T22:49:03.292Z,3.06
2023-02-20T22:52:26.345Z,3.15
2023-02-20T22:55:49.417Z,3.16
2023-02-20T22:59:12.773Z,3.38
2023-02-20T23:02:35.798Z,2.98
2023-02-20T23:06:11.648Z,3.07
2023-02-20T23:09:39.867Z,3.00
2023-02-20T23:13:03.003Z,2.79
2023-02-20T23:16:26.184Z,2.93
2023-02-20T23:19:49.569Z,2.91
2023-02-20T23:23:13.193Z,3.11
2023-02-20T23:26:36.113Z,3.15
2023-02-20T23:29:59.653Z,3.26
2023-02-20T23:33:23.220Z,3.03
2023-02-20T23:36:45.978Z,3.16
2023-02-20T23:40:09.350Z,3.07
2023-02-20T23:43:32.033Z,2.97
2023-02-20T23:46:55.475Z,2.88
2023-02-20T23:50:18.672Z,3.06
2023-02-20T23:53:41.519Z,2.96
2023-02-20T23:57:04.574Z,2.81
